sensor_id;sensor_type;location;lat;lon;timestamp;P1;durP1;ratioP1;P2;durP2;ratioP2
31732;SDS011;18312;51.486;7.144;2022-12-20T00:02:23;4.00;;;1.30;;
31732;SDS011;18312;51.486;7.144;2022-12-20T00:04:49;2.70;;;1.58;;
31732;SDS011;18312;51.486;7.144;2022-12-20T00:07:16;8.70;;;1.48;;
31732;SDS011;18312;51.486;7.144;2022-12-20T00:09:43;2.63;;;1.10;;
31732;SDS011;18312;51.486;7.144;2022-12-20T00:12:10;1.95;;;1.40;;
31732;SDS011;18312;51.486;7.144;2022-12-20T00:14:38;2.63;;;1.35;;
31732;SDS011;18312;51.486;7.144;2022-12-20T00:17:04;3.05;;;1.80;;
31732;SDS011;18312;51.486;7.144;2022-12-20T00:19:31;3.30;;;1.52;;
31732;SDS011;18312;51.486;7.144;2022-12-20T00:21:58;3.00;;;1.40;;
31732;SDS011;18312;51.486;7.144;2022-12-20T00:24:25;3.05;;;1.60;;
31732;SDS011;18312;51.486;7.144;2022-12-20T00:26:51;2.67;;;1.55;;
31732;SDS011;18312;51.486;7.144;2022-12-20T00:29:18;2.80;;;1.38;;
31732;SDS011;18312;51.486;7.144;2022-12-20T00:31:46;1.58;;;1.23;;
31732;SDS011;18312;51.486;7.144;2022-12-20T00:34:13;2.63;;;1.30;;
31732;SDS011;18312;51.486;7.144;2022-12-20T00:36:40;2.30;;;1.13;;
31732;SDS011;18312;51.486;7.144;2022-12-20T00:39:07;5.47;;;1.40;;
31732;SDS011;18312;51.486;7.144;2022-12-20T00:41:34;2.83;;;1.10;;
31732;SDS011;18312;51.486;7.144;2022-12-20T00:44:01;2.30;;;1.17;;
31732;SDS011;18312;51.486;7.144;2022-12-20T00:46:29;4.82;;;1.10;;
31732;SDS011;18312;51.486;7.144;2022-12-20T00:48:58;2.53;;;1.40;;
31732;SDS011;18312;51.486;7.144;2022-12-20T00:51:25;5.57;;;1.30;;
31732;SDS011;18312;51.486;7.144;2022-12-20T00:53:53;2.75;;;1.05;;
31732;SDS011;18312;51.486;7.144;2022-12-20T00:56:20;2.40;;;1.20;;
31732;SDS011;18312;51.486;7.144;2022-12-20T00:58:47;1.88;;;0.88;;
31732;SDS011;18312;51.486;7.144;2022-12-20T01:01:16;1.98;;;1.27;;
31732;SDS011;18312;51.486;7.144;2022-12-20T01:03:44;5.85;;;1.40;;
31732;SDS011;18312;51.486;7.144;2022-12-20T01:06:13;4.43;;;1.50;;
31732;SDS011;18312;51.486;7.144;2022-12-20T01:08:40;2.00;;;1.75;;
31732;SDS011;18312;51.486;7.144;2022-12-20T01:11:07;3.03;;;1.17;;
31732;SDS011;18312;51.486;7.144;2022-12-20T01:13:38;3.28;;;1.40;;
31732;SDS011;18312;51.486;7.144;2022-12-20T01:16:07;2.38;;;1.20;;
31732;SDS011;18312;51.486;7.144;2022-12-20T01:18:36;1.42;;;1.33;;
31732;SDS011;18312;51.486;7.144;2022-12-20T01:21:04;3.58;;;1.30;;
31732;SDS011;18312;51.486;7.144;2022-12-20T01:23:33;3.55;;;1.67;;
31732;SDS011;18312;51.486;7.144;2022-12-20T01:26:01;2.05;;;1.30;;
31732;SDS011;18312;51.486;7.144;2022-12-20T01:28:30;2.60;;;1.67;;
31732;SDS011;18312;51.486;7.144;2022-12-20T01:30:57;2.95;;;1.65;;
31732;SDS011;18312;51.486;7.144;2022-12-20T01:33:24;2.15;;;1.10;;
31732;SDS011;18312;51.486;7.144;2022-12-20T01:35:54;2.38;;;1.38;;
31732;SDS011;18312;51.486;7.144;2022-12-20T01:38:22;2.97;;;1.20;;
31732;SDS011;18312;51.486;7.144;2022-12-20T01:40:50;2.25;;;1.23;;
31732;SDS011;18312;51.486;7.144;2022-12-20T01:43:18;2.20;;;1.20;;
31732;SDS011;18312;51.486;7.144;2022-12-20T01:45:45;5.95;;;1.52;;
31732;SDS011;18312;51.486;7.144;2022-12-20T01:48:13;2.38;;;1.27;;
31732;SDS011;18312;51.486;7.144;2022-12-20T01:50:42;3.47;;;1.45;;
31732;SDS011;18312;51.486;7.144;2022-12-20T01:53:10;2.28;;;1.30;;
31732;SDS011;18312;51.486;7.144;2022-12-20T01:55:37;2.28;;;1.58;;
31732;SDS011;18312;51.486;7.144;2022-12-20T01:58:06;2.45;;;1.23;;
31732;SDS011;18312;51.486;7.144;2022-12-20T02:00:35;3.53;;;1.40;;
31732;SDS011;18312;51.486;7.144;2022-12-20T02:03:03;4.28;;;1.30;;
31732;SDS011;18312;51.486;7.144;2022-12-20T02:05:33;2.00;;;1.40;;
31732;SDS011;18312;51.486;7.144;2022-12-20T02:08:01;4.20;;;1.73;;
31732;SDS011;18312;51.486;7.144;2022-12-20T02:10:31;5.35;;;1.30;;
31732;SDS011;18312;51.486;7.144;2022-12-20T02:13:11;8.13;;;1.50;;
31732;SDS011;18312;51.486;7.144;2022-12-20T02:15:51;1.95;;;1.23;;
31732;SDS011;18312;51.486;7.144;2022-12-20T02:18:21;2.95;;;1.38;;
31732;SDS011;18312;51.486;7.144;2022-12-20T02:27:08;3.22;;;1.27;;
31732;SDS011;18312;51.486;7.144;2022-12-20T02:30:02;1.70;;;1.48;;
31732;SDS011;18312;51.486;7.144;2022-12-20T02:32:32;3.55;;;1.52;;
31732;SDS011;18312;51.486;7.144;2022-12-20T02:35:04;4.28;;;1.73;;
31732;SDS011;18312;51.486;7.144;2022-12-20T02:40:00;4.43;;;1.55;;
31732;SDS011;18312;51.486;7.144;2022-12-20T02:42:29;3.33;;;1.60;;
31732;SDS011;18312;51.486;7.144;2022-12-20T02:44:59;2.15;;;1.60;;
31732;SDS011;18312;51.486;7.144;2022-12-20T02:47:44;2.90;;;1.67;;
31732;SDS011;18312;51.486;7.144;2022-12-20T02:50:16;4.40;;;1.52;;
31732;SDS011;18312;51.486;7.144;2022-12-20T02:52:46;3.35;;;1.73;;
31732;SDS011;18312;51.486;7.144;2022-12-20T02:55:13;3.05;;;1.60;;
31732;SDS011;18312;51.486;7.144;2022-12-20T02:57:42;4.53;;;1.80;;
31732;SDS011;18312;51.486;7.144;2022-12-20T03:00:15;2.55;;;1.40;;
31732;SDS011;18312;51.486;7.144;2022-12-20T03:02:43;2.33;;;1.67;;
31732;SDS011;18312;51.486;7.144;2022-12-20T03:05:29;2.65;;;1.90;;
31732;SDS011;18312;51.486;7.144;2022-12-20T03:07:59;2.55;;;1.60;;
31732;SDS011;18312;51.486;7.144;2022-12-20T03:10:25;5.30;;;1.77;;
31732;SDS011;18312;51.486;7.144;2022-12-20T03:12:52;4.63;;;2.00;;
31732;SDS011;18312;51.486;7.144;2022-12-20T03:15:20;4.03;;;1.60;;
31732;SDS011;18312;51.486;7.144;2022-12-20T03:17:47;4.72;;;1.42;;
31732;SDS011;18312;51.486;7.144;2022-12-20T03:20:14;3.55;;;1.45;;
31732;SDS011;18312;51.486;7.144;2022-12-20T03:22:42;7.22;;;1.95;;
31732;SDS011;18312;51.486;7.144;2022-12-20T03:25:08;3.45;;;1.92;;
31732;SDS011;18312;51.486;7.144;2022-12-20T03:27:36;5.65;;;2.45;;
31732;SDS011;18312;51.486;7.144;2022-12-20T03:30:03;2.75;;;1.73;;
31732;SDS011;18312;51.486;7.144;2022-12-20T03:32:32;4.30;;;2.25;;
31732;SDS011;18312;51.486;7.144;2022-12-20T03:34:59;4.10;;;1.90;;
31732;SDS011;18312;51.486;7.144;2022-12-20T03:37:26;2.55;;;2.15;;
31732;SDS011;18312;51.486;7.144;2022-12-20T03:39:53;5.03;;;2.00;;
31732;SDS011;18312;51.486;7.144;2022-12-20T03:42:20;6.85;;;2.03;;
31732;SDS011;18312;51.486;7.144;2022-12-20T03:44:47;6.53;;;1.92;;
31732;SDS011;18312;51.486;7.144;2022-12-20T03:47:14;2.65;;;1.90;;
31732;SDS011;18312;51.486;7.144;2022-12-20T03:49:42;4.75;;;1.65;;
31732;SDS011;18312;51.486;7.144;2022-12-20T03:52:09;9.68;;;2.20;;
31732;SDS011;18312;51.486;7.144;2022-12-20T03:54:37;3.22;;;1.88;;
31732;SDS011;18312;51.486;7.144;2022-12-20T03:57:04;3.63;;;2.15;;
31732;SDS011;18312;51.486;7.144;2022-12-20T03:59:31;2.30;;;1.88;;
31732;SDS011;18312;51.486;7.144;2022-12-20T04:01:59;8.85;;;2.65;;
31732;SDS011;18312;51.486;7.144;2022-12-20T04:04:26;1.95;;;1.65;;
31732;SDS011;18312;51.486;7.144;2022-12-20T04:06:57;4.35;;;2.42;;
31732;SDS011;18312;51.486;7.144;2022-12-20T04:09:23;4.28;;;2.10;;
31732;SDS011;18312;51.486;7.144;2022-12-20T04:11:50;4.65;;;2.55;;
31732;SDS011;18312;51.486;7.144;2022-12-20T04:14:17;8.93;;;2.10;;
31732;SDS011;18312;51.486;7.144;2022-12-20T04:16:44;2.67;;;1.88;;
31732;SDS011;18312;51.486;7.144;2022-12-20T04:19:11;3.72;;;2.28;;
31732;SDS011;18312;51.486;7.144;2022-12-20T04:21:38;3.85;;;1.80;;
31732;SDS011;18312;51.486;7.144;2022-12-20T04:24:07;4.38;;;2.30;;
31732;SDS011;18312;51.486;7.144;2022-12-20T04:26:44;5.90;;;2.13;;
31732;SDS011;18312;51.486;7.144;2022-12-20T04:29:13;3.00;;;1.98;;
31732;SDS011;18312;51.486;7.144;2022-12-20T04:31:44;5.63;;;2.85;;
31732;SDS011;18312;51.486;7.144;2022-12-20T04:34:17;4.43;;;2.53;;
31732;SDS011;18312;51.486;7.144;2022-12-20T04:36:44;5.30;;;2.10;;
31732;SDS011;18312;51.486;7.144;2022-12-20T04:39:14;2.67;;;1.73;;
31732;SDS011;18312;51.486;7.144;2022-12-20T04:41:51;6.00;;;1.92;;
31732;SDS011;18312;51.486;7.144;2022-12-20T04:44:21;3.80;;;1.75;;
31732;SDS011;18312;51.486;7.144;2022-12-20T04:46:48;4.75;;;2.08;;
31732;SDS011;18312;51.486;7.144;2022-12-20T04:49:15;7.03;;;2.40;;
31732;SDS011;18312;51.486;7.144;2022-12-20T04:51:43;3.45;;;2.25;;
31732;SDS011;18312;51.486;7.144;2022-12-20T04:54:10;5.05;;;2.58;;
31732;SDS011;18312;51.486;7.144;2022-12-20T04:56:40;2.55;;;1.80;;
31732;SDS011;18312;51.486;7.144;2022-12-20T04:59:07;5.53;;;2.05;;
31732;SDS011;18312;51.486;7.144;2022-12-20T05:01:37;6.82;;;2.80;;
31732;SDS011;18312;51.486;7.144;2022-12-20T05:04:05;3.45;;;2.20;;
31732;SDS011;18312;51.486;7.144;2022-12-20T05:06:32;3.50;;;2.28;;
31732;SDS011;18312;51.486;7.144;2022-12-20T05:08:58;3.72;;;2.25;;
31732;SDS011;18312;51.486;7.144;2022-12-20T05:11:30;4.05;;;2.80;;
31732;SDS011;18312;51.486;7.144;2022-12-20T05:13:57;4.60;;;2.13;;
31732;SDS011;18312;51.486;7.144;2022-12-20T05:16:24;6.68;;;2.33;;
31732;SDS011;18312;51.486;7.144;2022-12-20T05:18:54;3.20;;;2.35;;
31732;SDS011;18312;51.486;7.144;2022-12-20T05:21:23;5.55;;;2.58;;
31732;SDS011;18312;51.486;7.144;2022-12-20T05:24:08;5.18;;;2.20;;
31732;SDS011;18312;51.486;7.144;2022-12-20T05:27:03;4.05;;;2.40;;
31732;SDS011;18312;51.486;7.144;2022-12-20T05:29:34;3.90;;;2.22;;
31732;SDS011;18312;51.486;7.144;2022-12-20T05:34:39;3.70;;;2.50;;
31732;SDS011;18312;51.486;7.144;2022-12-20T05:37:08;4.65;;;2.20;;
31732;SDS011;18312;51.486;7.144;2022-12-20T05:39:48;7.28;;;2.58;;
31732;SDS011;18312;51.486;7.144;2022-12-20T05:42:17;3.88;;;2.28;;
31732;SDS011;18312;51.486;7.144;2022-12-20T05:44:44;5.43;;;2.78;;
31732;SDS011;18312;51.486;7.144;2022-12-20T05:47:12;5.05;;;3.60;;
31732;SDS011;18312;51.486;7.144;2022-12-20T05:49:39;4.65;;;2.42;;
31732;SDS011;18312;51.486;7.144;2022-12-20T05:52:06;7.00;;;2.78;;
31732;SDS011;18312;51.486;7.144;2022-12-20T05:54:35;5.43;;;1.80;;
31732;SDS011;18312;51.486;7.144;2022-12-20T05:57:03;4.15;;;2.88;;
31732;SDS011;18312;51.486;7.144;2022-12-20T05:59:36;2.38;;;2.17;;
31732;SDS011;18312;51.486;7.144;2022-12-20T06:02:06;4.22;;;2.22;;
31732;SDS011;18312;51.486;7.144;2022-12-20T06:04:34;3.90;;;2.58;;
31732;SDS011;18312;51.486;7.144;2022-12-20T06:07:02;2.97;;;2.13;;
31732;SDS011;18312;51.486;7.144;2022-12-20T06:09:30;4.78;;;2.35;;
31732;SDS011;18312;51.486;7.144;2022-12-20T06:11:57;6.85;;;2.38;;
31732;SDS011;18312;51.486;7.144;2022-12-20T06:14:25;4.15;;;2.50;;
31732;SDS011;18312;51.486;7.144;2022-12-20T06:17:01;6.53;;;2.50;;
31732;SDS011;18312;51.486;7.144;2022-12-20T06:19:35;6.10;;;2.53;;
31732;SDS011;18312;51.486;7.144;2022-12-20T06:22:04;3.42;;;2.63;;
31732;SDS011;18312;51.486;7.144;2022-12-20T06:24:31;3.40;;;2.13;;
31732;SDS011;18312;51.486;7.144;2022-12-20T06:26:58;4.25;;;2.58;;
31732;SDS011;18312;51.486;7.144;2022-12-20T06:29:25;4.75;;;2.60;;
31732;SDS011;18312;51.486;7.144;2022-12-20T06:31:53;3.28;;;2.10;;
31732;SDS011;18312;51.486;7.144;2022-12-20T06:34:29;4.20;;;2.05;;
31732;SDS011;18312;51.486;7.144;2022-12-20T06:36:56;4.32;;;1.80;;
31732;SDS011;18312;51.486;7.144;2022-12-20T06:39:23;3.78;;;1.85;;
31732;SDS011;18312;51.486;7.144;2022-12-20T06:41:52;4.47;;;2.13;;
31732;SDS011;18312;51.486;7.144;2022-12-20T06:44:21;5.95;;;1.98;;
31732;SDS011;18312;51.486;7.144;2022-12-20T06:49:49;5.35;;;2.08;;
31732;SDS011;18312;51.486;7.144;2022-12-20T06:52:18;2.85;;;2.13;;
31732;SDS011;18312;51.486;7.144;2022-12-20T06:54:48;2.65;;;1.85;;
31732;SDS011;18312;51.486;7.144;2022-12-20T07:00:33;4.60;;;1.95;;
31732;SDS011;18312;51.486;7.144;2022-12-20T07:03:11;6.93;;;2.28;;
31732;SDS011;18312;51.486;7.144;2022-12-20T07:05:38;4.32;;;2.08;;
31732;SDS011;18312;51.486;7.144;2022-12-20T07:08:05;4.75;;;2.25;;
31732;SDS011;18312;51.486;7.144;2022-12-20T07:10:35;2.22;;;1.63;;
31732;SDS011;18312;51.486;7.144;2022-12-20T07:15:34;5.55;;;1.75;;
31732;SDS011;18312;51.486;7.144;2022-12-20T07:18:05;2.97;;;1.85;;
31732;SDS011;18312;51.486;7.144;2022-12-20T07:20:37;7.13;;;2.10;;
31732;SDS011;18312;51.486;7.144;2022-12-20T07:23:08;2.10;;;1.83;;
31732;SDS011;18312;51.486;7.144;2022-12-20T07:25:35;2.28;;;1.45;;
31732;SDS011;18312;51.486;7.144;2022-12-20T07:28:04;2.07;;;1.60;;
31732;SDS011;18312;51.486;7.144;2022-12-20T07:30:43;2.38;;;1.83;;
31732;SDS011;18312;51.486;7.144;2022-12-20T07:33:18;3.83;;;1.60;;
31732;SDS011;18312;51.486;7.144;2022-12-20T07:35:47;4.47;;;1.90;;
31732;SDS011;18312;51.486;7.144;2022-12-20T07:38:14;2.60;;;1.73;;
31732;SDS011;18312;51.486;7.144;2022-12-20T07:40:41;1.90;;;1.70;;
31732;SDS011;18312;51.486;7.144;2022-12-20T07:43:22;1.73;;;1.58;;
31732;SDS011;18312;51.486;7.144;2022-12-20T07:45:57;3.17;;;1.80;;
31732;SDS011;18312;51.486;7.144;2022-12-20T07:48:32;3.80;;;1.55;;
31732;SDS011;18312;51.486;7.144;2022-12-20T07:51:05;2.42;;;1.58;;
31732;SDS011;18312;51.486;7.144;2022-12-20T07:53:40;3.40;;;1.48;;
31732;SDS011;18312;51.486;7.144;2022-12-20T07:56:22;5.97;;;1.70;;
31732;SDS011;18312;51.486;7.144;2022-12-20T07:58:58;2.95;;;1.50;;
31732;SDS011;18312;51.486;7.144;2022-12-20T08:01:43;2.45;;;1.65;;
31732;SDS011;18312;51.486;7.144;2022-12-20T08:04:13;2.53;;;1.60;;
31732;SDS011;18312;51.486;7.144;2022-12-20T08:06:50;2.42;;;1.50;;
31732;SDS011;18312;51.486;7.144;2022-12-20T08:09:19;2.88;;;1.50;;
31732;SDS011;18312;51.486;7.144;2022-12-20T08:11:48;3.58;;;1.60;;
31732;SDS011;18312;51.486;7.144;2022-12-20T08:14:16;3.17;;;1.65;;
31732;SDS011;18312;51.486;7.144;2022-12-20T08:16:44;2.13;;;1.08;;
31732;SDS011;18312;51.486;7.144;2022-12-20T08:19:11;5.25;;;1.80;;
31732;SDS011;18312;51.486;7.144;2022-12-20T08:21:38;1.90;;;1.17;;
31732;SDS011;18312;51.486;7.144;2022-12-20T08:24:06;4.35;;;1.80;;
31732;SDS011;18312;51.486;7.144;2022-12-20T08:26:35;3.90;;;1.85;;
31732;SDS011;18312;51.486;7.144;2022-12-20T08:29:03;2.95;;;1.13;;
31732;SDS011;18312;51.486;7.144;2022-12-20T08:31:29;3.10;;;1.45;;
31732;SDS011;18312;51.486;7.144;2022-12-20T08:33:56;1.40;;;1.13;;
31732;SDS011;18312;51.486;7.144;2022-12-20T08:36:23;2.60;;;1.52;;
31732;SDS011;18312;51.486;7.144;2022-12-20T08:38:50;2.38;;;1.10;;
31732;SDS011;18312;51.486;7.144;2022-12-20T08:41:20;3.13;;;1.50;;
31732;SDS011;18312;51.486;7.144;2022-12-20T08:43:47;5.35;;;1.70;;
31732;SDS011;18312;51.486;7.144;2022-12-20T08:46:13;4.13;;;1.48;;
31732;SDS011;18312;51.486;7.144;2022-12-20T08:48:40;4.15;;;1.95;;
31732;SDS011;18312;51.486;7.144;2022-12-20T08:51:08;2.97;;;1.80;;
31732;SDS011;18312;51.486;7.144;2022-12-20T08:53:37;3.00;;;1.30;;
31732;SDS011;18312;51.486;7.144;2022-12-20T08:56:05;3.67;;;1.40;;
31732;SDS011;18312;51.486;7.144;2022-12-20T08:58:35;2.67;;;1.85;;
31732;SDS011;18312;51.486;7.144;2022-12-20T09:01:03;1.52;;;1.38;;
31732;SDS011;18312;51.486;7.144;2022-12-20T09:03:34;1.85;;;1.27;;
31732;SDS011;18312;51.486;7.144;2022-12-20T09:06:04;3.58;;;1.30;;
31732;SDS011;18312;51.486;7.144;2022-12-20T09:08:32;2.20;;;1.38;;
31732;SDS011;18312;51.486;7.144;2022-12-20T09:11:02;2.65;;;1.13;;
31732;SDS011;18312;51.486;7.144;2022-12-20T09:13:30;1.63;;;1.27;;
31732;SDS011;18312;51.486;7.144;2022-12-20T09:16:00;2.03;;;1.15;;
31732;SDS011;18312;51.486;7.144;2022-12-20T09:18:27;4.47;;;1.42;;
31732;SDS011;18312;51.486;7.144;2022-12-20T09:20:53;7.32;;;1.67;;
31732;SDS011;18312;51.486;7.144;2022-12-20T09:23:20;2.30;;;1.60;;
31732;SDS011;18312;51.486;7.144;2022-12-20T09:25:47;4.10;;;1.50;;
31732;SDS011;18312;51.486;7.144;2022-12-20T09:28:14;5.43;;;2.65;;
31732;SDS011;18312;51.486;7.144;2022-12-20T09:30:41;2.85;;;1.95;;
31732;SDS011;18312;51.486;7.144;2022-12-20T09:33:10;3.20;;;1.48;;
31732;SDS011;18312;51.486;7.144;2022-12-20T09:35:42;2.42;;;1.33;;
31732;SDS011;18312;51.486;7.144;2022-12-20T09:38:10;2.67;;;1.20;;
31732;SDS011;18312;51.486;7.144;2022-12-20T09:40:36;3.15;;;1.65;;
31732;SDS011;18312;51.486;7.144;2022-12-20T09:43:04;3.63;;;1.90;;
31732;SDS011;18312;51.486;7.144;2022-12-20T09:45:35;5.05;;;1.40;;
31732;SDS011;18312;51.486;7.144;2022-12-20T09:48:03;3.95;;;1.60;;
31732;SDS011;18312;51.486;7.144;2022-12-20T09:50:36;4.18;;;1.58;;
31732;SDS011;18312;51.486;7.144;2022-12-20T09:53:13;2.33;;;1.90;;
31732;SDS011;18312;51.486;7.144;2022-12-20T09:55:49;1.92;;;1.25;;
31732;SDS011;18312;51.486;7.144;2022-12-20T09:58:27;3.53;;;1.30;;
31732;SDS011;18312;51.486;7.144;2022-12-20T10:01:09;4.55;;;1.45;;
31732;SDS011;18312;51.486;7.144;2022-12-20T10:03:40;3.20;;;1.45;;
31732;SDS011;18312;51.486;7.144;2022-12-20T10:06:10;2.00;;;1.40;;
31732;SDS011;18312;51.486;7.144;2022-12-20T10:08:48;2.92;;;1.33;;
31732;SDS011;18312;51.486;7.144;2022-12-20T10:11:27;3.42;;;1.40;;
31732;SDS011;18312;51.486;7.144;2022-12-20T10:16:52;4.85;;;1.40;;
31732;SDS011;18312;51.486;7.144;2022-12-20T10:19:29;4.93;;;1.55;;
31732;SDS011;18312;51.486;7.144;2022-12-20T10:22:17;2.38;;;1.52;;
31732;SDS011;18312;51.486;7.144;2022-12-20T10:24:57;3.25;;;1.20;;
31732;SDS011;18312;51.486;7.144;2022-12-20T10:27:27;3.00;;;1.73;;
31732;SDS011;18312;51.486;7.144;2022-12-20T10:29:54;3.33;;;1.35;;
31732;SDS011;18312;51.486;7.144;2022-12-20T10:32:21;3.22;;;1.27;;
31732;SDS011;18312;51.486;7.144;2022-12-20T10:34:50;4.32;;;1.50;;
31732;SDS011;18312;51.486;7.144;2022-12-20T10:37:22;1.50;;;1.00;;
31732;SDS011;18312;51.486;7.144;2022-12-20T10:39:49;1.45;;;1.30;;
31732;SDS011;18312;51.486;7.144;2022-12-20T10:42:22;4.15;;;1.13;;
31732;SDS011;18312;51.486;7.144;2022-12-20T10:44:51;1.80;;;1.40;;
31732;SDS011;18312;51.486;7.144;2022-12-20T10:47:22;3.65;;;1.48;;
31732;SDS011;18312;51.486;7.144;2022-12-20T10:53:03;2.65;;;1.05;;
31732;SDS011;18312;51.486;7.144;2022-12-20T10:55:43;1.92;;;1.30;;
31732;SDS011;18312;51.486;7.144;2022-12-20T10:58:12;2.50;;;1.38;;
31732;SDS011;18312;51.486;7.144;2022-12-20T11:00:41;1.70;;;1.10;;
31732;SDS011;18312;51.486;7.144;2022-12-20T11:03:10;3.33;;;1.30;;
31732;SDS011;18312;51.486;7.144;2022-12-20T11:05:47;5.55;;;1.55;;
31732;SDS011;18312;51.486;7.144;2022-12-20T11:08:21;2.03;;;1.38;;
31732;SDS011;18312;51.486;7.144;2022-12-20T11:10:50;3.50;;;1.60;;
31732;SDS011;18312;51.486;7.144;2022-12-20T11:13:35;2.45;;;1.27;;
31732;SDS011;18312;51.486;7.144;2022-12-20T11:16:02;5.18;;;1.40;;
31732;SDS011;18312;51.486;7.144;2022-12-20T11:18:34;3.55;;;1.10;;
31732;SDS011;18312;51.486;7.144;2022-12-20T11:21:11;2.40;;;1.50;;
31732;SDS011;18312;51.486;7.144;2022-12-20T11:23:49;4.30;;;1.25;;
31732;SDS011;18312;51.486;7.144;2022-12-20T11:26:29;2.42;;;1.17;;
31732;SDS011;18312;51.486;7.144;2022-12-20T11:29:07;2.90;;;1.20;;
31732;SDS011;18312;51.486;7.144;2022-12-20T11:31:49;1.63;;;1.00;;
31732;SDS011;18312;51.486;7.144;2022-12-20T11:34:22;1.38;;;0.85;;
31732;SDS011;18312;51.486;7.144;2022-12-20T11:37:02;2.63;;;1.40;;
31732;SDS011;18312;51.486;7.144;2022-12-20T11:39:40;4.22;;;1.30;;
31732;SDS011;18312;51.486;7.144;2022-12-20T11:42:45;1.40;;;0.98;;
31732;SDS011;18312;51.486;7.144;2022-12-20T11:45:22;3.95;;;1.20;;
31732;SDS011;18312;51.486;7.144;2022-12-20T11:47:56;2.22;;;1.20;;
31732;SDS011;18312;51.486;7.144;2022-12-20T11:50:53;2.78;;;1.10;;
31732;SDS011;18312;51.486;7.144;2022-12-20T11:53:34;1.15;;;1.02;;
31732;SDS011;18312;51.486;7.144;2022-12-20T11:56:05;3.95;;;1.42;;
31732;SDS011;18312;51.486;7.144;2022-12-20T11:58:43;1.77;;;1.08;;
31732;SDS011;18312;51.486;7.144;2022-12-20T12:01:17;3.13;;;1.00;;
31732;SDS011;18312;51.486;7.144;2022-12-20T12:03:51;3.03;;;1.10;;
31732;SDS011;18312;51.486;7.144;2022-12-20T12:06:40;2.13;;;1.27;;
31732;SDS011;18312;51.486;7.144;2022-12-20T12:09:13;1.38;;;1.02;;
31732;SDS011;18312;51.486;7.144;2022-12-20T12:11:59;2.17;;;1.20;;
31732;SDS011;18312;51.486;7.144;2022-12-20T12:14:44;0.95;;;0.85;;
31732;SDS011;18312;51.486;7.144;2022-12-20T12:17:20;4.25;;;1.50;;
31732;SDS011;18312;51.486;7.144;2022-12-20T12:19:53;2.80;;;1.20;;
31732;SDS011;18312;51.486;7.144;2022-12-20T12:22:29;2.15;;;1.50;;
31732;SDS011;18312;51.486;7.144;2022-12-20T12:25:01;5.80;;;1.20;;
31732;SDS011;18312;51.486;7.144;2022-12-20T12:27:42;5.78;;;1.13;;
31732;SDS011;18312;51.486;7.144;2022-12-20T12:30:11;2.05;;;1.17;;
31732;SDS011;18312;51.486;7.144;2022-12-20T12:32:40;2.63;;;1.27;;
31732;SDS011;18312;51.486;7.144;2022-12-20T12:35:19;1.83;;;1.20;;
31732;SDS011;18312;51.486;7.144;2022-12-20T12:41:04;2.28;;;1.10;;
31732;SDS011;18312;51.486;7.144;2022-12-20T12:43:50;2.95;;;1.13;;
31732;SDS011;18312;51.486;7.144;2022-12-20T12:46:21;2.60;;;1.20;;
31732;SDS011;18312;51.486;7.144;2022-12-20T12:48:54;2.25;;;1.17;;
31732;SDS011;18312;51.486;7.144;2022-12-20T12:51:25;3.42;;;1.23;;
31732;SDS011;18312;51.486;7.144;2022-12-20T12:54:01;2.00;;;1.35;;
31732;SDS011;18312;51.486;7.144;2022-12-20T12:56:38;4.32;;;1.40;;
31732;SDS011;18312;51.486;7.144;2022-12-20T12:59:14;3.53;;;1.27;;
31732;SDS011;18312;51.486;7.144;2022-12-20T13:04:52;1.55;;;1.17;;
31732;SDS011;18312;51.486;7.144;2022-12-20T13:07:25;1.30;;;0.90;;
31732;SDS011;18312;51.486;7.144;2022-12-20T13:09:56;2.63;;;0.80;;
31732;SDS011;18312;51.486;7.144;2022-12-20T13:18:38;4.38;;;1.60;;
31732;SDS011;18312;51.486;7.144;2022-12-20T13:21:38;5.43;;;1.40;;
31732;SDS011;18312;51.486;7.144;2022-12-20T13:27:24;2.40;;;1.20;;
31732;SDS011;18312;51.486;7.144;2022-12-20T13:29:57;3.35;;;1.70;;
31732;SDS011;18312;51.486;7.144;2022-12-20T13:35:28;5.40;;;1.75;;
31732;SDS011;18312;51.486;7.144;2022-12-20T13:37:58;2.88;;;1.92;;
31732;SDS011;18312;51.486;7.144;2022-12-20T13:40:41;6.35;;;2.40;;
31732;SDS011;18312;51.486;7.144;2022-12-20T13:43:15;3.78;;;2.30;;
31732;SDS011;18312;51.486;7.144;2022-12-20T13:46:11;5.43;;;2.00;;
31732;SDS011;18312;51.486;7.144;2022-12-20T13:48:42;10.02;;;2.78;;
31732;SDS011;18312;51.486;7.144;2022-12-20T13:51:21;8.75;;;2.30;;
31732;SDS011;18312;51.486;7.144;2022-12-20T13:53:53;4.03;;;2.80;;
31732;SDS011;18312;51.486;7.144;2022-12-20T13:56:34;5.13;;;2.25;;
31732;SDS011;18312;51.486;7.144;2022-12-20T13:59:11;5.90;;;3.08;;
31732;SDS011;18312;51.486;7.144;2022-12-20T14:01:48;4.50;;;2.80;;
31732;SDS011;18312;51.486;7.144;2022-12-20T14:04:16;7.70;;;2.35;;
31732;SDS011;18312;51.486;7.144;2022-12-20T14:06:45;4.32;;;1.95;;
31732;SDS011;18312;51.486;7.144;2022-12-20T14:09:27;6.63;;;2.40;;
31732;SDS011;18312;51.486;7.144;2022-12-20T14:12:01;5.50;;;2.20;;
31732;SDS011;18312;51.486;7.144;2022-12-20T14:14:29;8.75;;;2.45;;
31732;SDS011;18312;51.486;7.144;2022-12-20T14:19:41;8.38;;;2.70;;
31732;SDS011;18312;51.486;7.144;2022-12-20T14:22:10;3.70;;;2.58;;
31732;SDS011;18312;51.486;7.144;2022-12-20T14:24:38;6.95;;;3.17;;
31732;SDS011;18312;51.486;7.144;2022-12-20T14:27:07;9.43;;;2.95;;
31732;SDS011;18312;51.486;7.144;2022-12-20T14:29:38;7.70;;;2.30;;
31732;SDS011;18312;51.486;7.144;2022-12-20T14:32:05;10.50;;;3.00;;
31732;SDS011;18312;51.486;7.144;2022-12-20T14:34:43;5.40;;;2.50;;
31732;SDS011;18312;51.486;7.144;2022-12-20T14:40:13;5.82;;;2.88;;
31732;SDS011;18312;51.486;7.144;2022-12-20T14:42:43;4.65;;;2.60;;
31732;SDS011;18312;51.486;7.144;2022-12-20T14:45:15;9.35;;;3.10;;
31732;SDS011;18312;51.486;7.144;2022-12-20T14:47:48;6.55;;;3.15;;
31732;SDS011;18312;51.486;7.144;2022-12-20T14:50:17;7.13;;;2.60;;
31732;SDS011;18312;51.486;7.144;2022-12-20T14:52:48;10.18;;;2.63;;
31732;SDS011;18312;51.486;7.144;2022-12-20T14:55:16;7.22;;;3.03;;
31732;SDS011;18312;51.486;7.144;2022-12-20T14:57:46;6.20;;;4.00;;
31732;SDS011;18312;51.486;7.144;2022-12-20T15:00:19;8.50;;;2.78;;
31732;SDS011;18312;51.486;7.144;2022-12-20T15:02:55;6.85;;;2.88;;
31732;SDS011;18312;51.486;7.144;2022-12-20T15:05:34;11.80;;;2.97;;
31732;SDS011;18312;51.486;7.144;2022-12-20T15:08:10;7.28;;;2.95;;
31732;SDS011;18312;51.486;7.144;2022-12-20T15:13:28;5.82;;;3.03;;
31732;SDS011;18312;51.486;7.144;2022-12-20T15:16:01;7.60;;;3.30;;
31732;SDS011;18312;51.486;7.144;2022-12-20T15:18:29;5.53;;;2.80;;
31732;SDS011;18312;51.486;7.144;2022-12-20T15:21:00;4.60;;;2.95;;
31732;SDS011;18312;51.486;7.144;2022-12-20T15:23:31;4.78;;;2.70;;
31732;SDS011;18312;51.486;7.144;2022-12-20T15:26:02;6.47;;;3.20;;
31732;SDS011;18312;51.486;7.144;2022-12-20T15:28:35;8.07;;;3.22;;
31732;SDS011;18312;51.486;7.144;2022-12-20T15:31:02;6.22;;;3.15;;
31732;SDS011;18312;51.486;7.144;2022-12-20T15:33:29;7.53;;;3.17;;
31732;SDS011;18312;51.486;7.144;2022-12-20T15:35:59;9.18;;;3.63;;
31732;SDS011;18312;51.486;7.144;2022-12-20T15:38:26;4.55;;;2.60;;
31732;SDS011;18312;51.486;7.144;2022-12-20T15:40:58;7.80;;;3.45;;
31732;SDS011;18312;51.486;7.144;2022-12-20T15:43:33;7.15;;;3.92;;
31732;SDS011;18312;51.486;7.144;2022-12-20T15:46:04;6.57;;;2.78;;
31732;SDS011;18312;51.486;7.144;2022-12-20T15:48:31;4.50;;;2.85;;
31732;SDS011;18312;51.486;7.144;2022-12-20T15:50:58;3.60;;;2.83;;
31732;SDS011;18312;51.486;7.144;2022-12-20T15:53:26;5.43;;;2.72;;
31732;SDS011;18312;51.486;7.144;2022-12-20T15:55:59;8.70;;;2.70;;
31732;SDS011;18312;51.486;7.144;2022-12-20T15:58:28;5.50;;;2.85;;
31732;SDS011;18312;51.486;7.144;2022-12-20T16:03:28;7.53;;;2.92;;
31732;SDS011;18312;51.486;7.144;2022-12-20T16:05:57;5.22;;;3.08;;
31732;SDS011;18312;51.486;7.144;2022-12-20T16:08:24;7.53;;;2.70;;